San Antonio, Valles Caldera, New Mexico Weather observations

Data are for 10 minute period ending at time listed.
 Day   Time   Solar   Ave.   Ave.  Ave.  Vector  Max.   Baro.   Total    
  of    of     Rad.   Air    Rel.  Wind   Wind   Wind  Press.  Precip.   
Year   Day            Temp.  Hum.  Speed  Dir.   Gust                    
2015   (MST)  Kw/m2    F      %     mph   deg.    mph    mb.     in.     
-------------------------------------------------------------------------
 141   14:20   0.18   45.6    78    7.6    86    14.9   397.2    0.00 
 141   14:30   0.14   45.8    76    6.0    94    11.3   397.2    0.00 
 141   14:40   0.13   45.5    77    9.5   107    16.1   396.9    0.00 
 141   14:50   0.12   44.6    80    9.8   108    15.5   397.2    0.00 
 141   15:00   0.09   44.4    81   11.4   110    17.3   397.2    0.00 
 141   15:10   0.06   44.2    81   10.7   116    18.5   397.2    0.00 
 141   15:20   0.05   44.1    80    7.1    83    11.9   397.2    0.00 
 141   15:30   0.05   44.1    80    5.2    39    10.8   396.9    0.00 
 141   15:40   0.05   44.1    84    8.3   132    12.5   397.2    0.00 
 141   15:50   0.05   43.8    85    5.7   135     9.6   397.6    0.00 
 141   16:00   0.04   44.0    85    3.1   153     6.0   397.6    0.00 
 141   16:10   0.03   44.3    78    3.0    40     7.2   396.9    0.00 
 141   16:20   0.02   44.0    79    6.7   102    13.1   396.9    0.00 
 141   16:30   0.01   43.4    83    6.4   102    10.2   396.9    0.00 
 141   16:40   0.01   43.0    86    8.1   115    12.5   397.6    0.00 
 141   16:50   0.01   42.2    86    6.4    99    11.3   397.6    0.00 
 141   17:00   0.01   41.6    87    7.2    97    10.2   397.6    0.00 
 141   17:10   0.01   41.2    87    7.2   110    10.8   397.6    0.00 
 141   17:20   0.01   40.9    88    9.2   108    14.3   397.6    0.00 
 141   17:30   0.01   40.3    88    9.1   104    14.3   397.6    0.00 
 141   17:40   0.01   40.0    89    8.4   101    16.1   397.6    0.02 
 141   17:50   0.01   39.5    89    9.1    90    17.9   397.6    0.01 
 141   18:00   0.01   39.1    90    6.7    80    14.9   397.6    0.02 
 141   18:10   0.04   39.0    90    9.7   104    15.5   397.6    0.01 
 141   18:20   0.06   38.2    88   10.4   114    16.7   397.6    0.01 
 141   18:30   0.05   37.1    88    9.0   118    13.1   397.6    0.00 
 141   18:40   0.04   36.7    89    8.6   117    13.1   397.6    0.00 
 141   18:50   0.01   36.5    90    8.2   128    12.5   397.6    0.00 
 141   19:00   0.01   36.4    91    7.2   114    10.8   397.6    0.01 
 141   19:10   0.00   37.1    90    7.1   114    10.8   397.6    0.00 
 141   19:20   0.00   37.1    90    7.5   139    12.5   397.6    0.00 
 141   19:30   0.00   36.7    91    6.5   121     9.6   397.6    0.00 
 141   19:40   0.00   36.7    90    7.5   113    12.5   397.6    0.00 
 141   19:50   0.00   36.8    90    6.6    94    14.3   397.6    0.00 
 141   20:00   0.00   37.1    89    7.7   108    13.1   397.6    0.00 
 141   20:10   0.00   37.2    89    6.3   124    10.8   397.2    0.00 
 141   20:20   0.00   37.2    90    6.5   113     9.6   397.6    0.00 
 141   20:30   0.00   37.3    90    7.1   116    11.3   397.6    0.00 
 141   20:40   0.00   37.7    90    7.8   108    13.1   397.6    0.00 
 141   20:50   0.00   38.5    88    7.4   112    11.3   397.2    0.00 
 141   21:00   0.00   38.1    89    5.4   107     9.6   397.2    0.00 
 141   21:10   0.00   38.0    90    6.2   104    11.3   397.6    0.00 
 141   21:20   0.00   38.1    92    9.0   116    15.5   397.6    0.00 
 141   21:30   0.00   38.3    92    9.6   114    17.9   397.9    0.00 
 141   21:40   0.00   38.4    90   11.1   123    20.3   397.6    0.00 
 141   21:50   0.00   38.2    89   10.4   110    19.7   397.6    0.00 
 141   22:00   0.00   38.0    89    9.3   118    18.5   397.6    0.01 
 141   22:10   0.00   37.5    88    8.0   136    17.3   397.6    0.00 
 141   22:20   0.00   36.6    89    5.9   149    11.3   397.6    0.04 
 141   22:30   0.00   35.2    90    9.7   288    18.5   397.6    0.03 
 141   22:40   0.00   33.1    92    4.1   329     7.8   397.6    0.02 
 141   22:50   0.00   32.7    93    2.0   340     4.8   397.9    0.02 
 141   23:00   0.00   32.7    94    1.9   350     6.0   397.9    0.01 
 141   23:10   0.00   32.9    94    4.0   324     6.6   397.9    0.01 
 141   23:20   0.00   33.1    94    5.7   354    10.8   397.9    0.00 
 141   23:30   0.00   33.6    94    5.1   353     9.0   397.9    0.02 
 141   23:40   0.00   34.0    93    4.3   350     8.4   397.9    0.02 
 141   23:50   0.00   33.9    93    2.6   335     4.8   397.6    0.01 
 142    0:00   0.00   33.0    93    2.1    71     3.6   397.6    0.01 
 142    0:10   0.00   32.7    94    2.7    70     9.6   397.9    0.01 
 142    0:20   0.00   33.1    94    6.2   113    11.3   397.9    0.00 
 142    0:30   0.00   33.5    93    6.3    98    11.9   397.9    0.01 
 142    0:40   0.00   34.3    91    6.6   100    11.3   397.6    0.00 
 142    0:50   0.00   34.4    89    5.2   129     9.6   397.2    0.00 
 142    1:00   0.00   32.8    92    3.3   113     7.2   397.6    0.01 
 142    1:10   0.00   32.8    94    2.3   139     4.8   397.9    0.00 
 142    1:20   0.00   32.8    94    2.0   348     3.6   397.9    0.00 
 142    1:30   0.00   32.8    94    1.2   192     2.4   397.9    0.00 
 142    1:40   0.00   32.6    94    1.3    47     3.0   397.9    0.00 
 142    1:50   0.00   32.8    94    1.4    45     3.0   397.9    0.01 
 142    2:00   0.00   32.9    95    3.0   352     4.8   397.9    0.00 
 142    2:10   0.00   33.0    95    1.0    58     3.0   397.9    0.00 
 142    2:20   0.00   33.0    95    1.7    46     4.2   397.9    0.00 
 142    2:30   0.00   32.7    95    0.9   192     3.0   397.9    0.00 
 142    2:40   0.00   32.6    95    2.3    85     4.2   397.9    0.00 
 142    2:50   0.00   32.6    95    2.7   336     6.0   397.9    0.01 
 142    3:00   0.00   32.8    95    1.9    31     3.6   397.9    0.00 
 142    3:10   0.00   32.7    95    1.3    51     2.4   397.9    0.00 
 142    3:20   0.00   32.6    95    0.8   358     3.0   397.9    0.00 
 142    3:30   0.00   32.5    95    0.4   198     1.8   397.9    0.00 
 142    3:40   0.00   32.5    95    0.5   357     2.4   397.9    0.00 
 142    3:50   0.00   32.4    95    1.3   121     3.0   397.9    0.00 
 142    4:00   0.00   32.2    95    1.1    53     3.6   397.9    0.00 
 142    4:10   0.00   32.0    95    1.4     8     3.6   397.9    0.00 
 142    4:20   0.00   31.9    95    1.4   352     3.0   397.9    0.00 
 142    4:30   0.00   31.9    96    1.8   352     3.6   397.9    0.00 
 142    4:40   0.00   32.0    96    2.0   334     3.6   397.9    0.00 
 142    4:50   0.00   31.9    96    0.8   337     2.4   397.9    0.01 
 142    5:00   0.00   31.9    96    1.5   276     4.2   397.9    0.00 
 142    5:10   0.00   32.1    96    0.7    84     3.0   398.2    0.00 
 142    5:20   0.01   32.2    96    1.2   332     3.0   398.2    0.00 
 142    5:30   0.01   32.4    96    0.8    89     3.0   397.9    0.00 
 142    5:40   0.02   32.5    96    0.9   153     3.0   398.2    0.00 
 142    5:50   0.03   32.5    96    1.4   127     3.0   398.2    0.00 
 142    6:00   0.05   32.8    96    1.9   264     3.6   398.2    0.03 
 142    6:10   0.06   33.0    96    0.9     0     3.0   397.9    0.01 
 142    6:20   0.08   33.3    95    1.8   238     3.6   398.2    0.01 
 142    6:30   0.09   33.7    95    0.6   207     2.4   397.9    0.00 
 142    6:40   0.12   34.0    95    0.7   119     2.4   398.2    0.00 
 142    6:50   0.24   35.4    94    0.3   140     2.4   398.2    0.01 
 142    7:00   0.38   39.8    88    0.6   242     3.0   397.9    0.00 
 142    7:10   0.25   38.9    81    2.0   249     3.0   396.9    0.00 
 142    7:20   0.31   36.4    88    0.8   189     2.4   397.2    0.00 
 142    7:30   0.55   40.6    83    1.0   182     3.0   397.6    0.00 
 142    7:40   0.32   40.7    80    0.8   185     3.0   396.9    0.01 
 142    7:50   0.27   40.6    82    1.9   274     3.0   396.9    0.00 
 142    8:00   0.34   40.4    84    0.7   340     1.8   397.2    0.00 
 142    8:10   0.60   42.5    83    2.3   212     4.8   397.6    0.00 
 142    8:20   0.53   46.3    76    1.9   314     3.6   397.6    0.01 
 142    8:30   0.38   46.7    74    3.7   275     6.6   397.2    0.00 
 142    8:40   0.70   46.9    72    3.0   314     6.0   397.2    0.00 
 142    8:50   0.71   49.0    67    4.1   294     7.2   397.2    0.00 
 142    9:00   0.71   51.4    62    3.5   315     6.0   397.2    0.01 
 142    9:10   0.75   51.3    60    3.5   292     6.6   397.2    0.00 
 142    9:20   0.78   50.5    58    2.6     4     5.4   397.2    0.00 
 142    9:30   0.83   50.4    61    2.8   258     4.8   397.6    0.00 
 142    9:40   0.87   51.5    60    3.9   306     6.6   397.6    0.01 
 142    9:50   0.69   50.4    57    3.1   201     5.4   397.6    0.00 
 142   10:00   0.70   49.1    60    2.8   247     6.0   397.6    0.00 
 142   10:10   0.73   49.7    60    4.2   177     6.6   397.6    0.00 
 142   10:20   0.47   49.0    61    3.7   203     7.2   397.2    0.01 
 142   10:30   0.46   49.2    60    2.8   242     6.6   397.2    0.00 
 142   10:40   0.48   49.4    58    3.4   167     7.2   397.2    0.00 
 142   10:50   0.33   50.1    59    3.6   228     7.8   397.2    0.00 
 142   11:00   0.39   50.3    58    4.2   192    11.3   397.2    0.00 
 142   11:10   0.60   51.3    48    5.6   198    10.8   397.2    0.00 
 142   11:20   0.71   51.1    53    6.4   211    13.7   397.2    0.01 
 142   11:30   0.68   52.0    51    7.4   206    12.5   397.2    0.00 
 142   11:40   0.95   52.5    53    8.7   227    14.3   397.6    0.00 
 142   11:50   0.67   52.5    57    9.6   229    15.5   397.6    0.00 
 142   12:00   1.02   53.0    55    9.8   209    16.1   397.9    0.01 
 142   12:10   1.03   52.7    56    8.1   224    15.5   397.9    0.00 
 142   12:20   0.81   52.6    54    8.1   235    14.3   397.9    0.00 
 142   12:30   0.99   52.6    49    8.5   200    29.2   397.6    0.12 
 142   12:40   1.01   54.6    47    8.5   188    17.3   397.9    0.00 
 142   12:50   1.00   55.0    44    8.5   182    16.1   397.9    0.00 
 142   13:00   0.99   54.5    41    9.6   199    16.1   397.6    0.00 
 142   13:10   0.96   54.3    40    9.2   192    19.1   397.6    0.00 
 142   13:20   0.96   53.8    40    8.7   196    19.7   397.6    0.00 
 142   13:30   0.94   54.8    41    9.2   172    18.5   397.6    0.00 
 142   13:40   0.93   54.9    42    7.3   205    12.5   397.9    0.00 
 142   13:50   0.91   55.5    42    9.9   220    17.3   397.9    0.00 
 142   14:00   0.52   53.4    42   10.7   166    24.5   397.2    0.01 
 142   14:10   0.65   53.0    41    9.6   158    17.3   397.2    0.00 

Return to San Antonio, Valles Caldera graphs page.


Western Regional Climate Center,wrcc@dri.edu